Flight Track Log - Related Links

Times and Time Zones

All times are in EDT time to prevent confusion due to time zone crossing. See the N207BG flight status page for this flight to view local times or setup timezone preferences in your user account.

Time Position Orientation Groundspeed Altitude Reporting Facility
EDT Latitude Longitude Course Direction KTS MPH feet Rate Location/Type
Thu 11:05:09 PM 41.1583 -104.8481 112° Southeast 189 217 7,800  Level Denver Center
Thu 11:06:11 PM 41.1289 -104.8906 227° Southwest 216 249 10,300 2,049 Climbing Denver Center
Thu 11:07:12 PM 41.0869 -104.8181 127° Southeast 224 258 12,000 1,770 Climbing Denver Center
Thu 11:08:13 PM 41.0483 -104.7200 118° Southeast 281 323 13,900 1,902 Climbing Denver Center
Thu 11:09:15 PM 41.0064 -104.6011 115° Southeast 309 356 15,900 1,561 Climbing Denver Center
Thu 11:10:00 PM 40.9079 -104.0138 112° Southeast  Level Estimated
Thu 11:10:16 PM 40.9656 -104.4878 115° Southeast 330 380 17,100  Level Denver Center
Thu 11:11:18 PM 40.9208 -104.3681 116° Southeast 351 404 17,800 1,073 Climbing Denver Center
Thu 11:12:19 PM 40.8775 -104.2503 116° Southeast 356 410 19,300 1,770 Climbing Denver Center
Thu 11:13:20 PM 40.8339 -104.1358 117° Southeast 349 402 21,400 1,951 Climbing Denver Center
Thu 11:14:22 PM 40.7914 -104.0242 117° Southeast 342 394 23,300 1,415 Climbing Denver Center
Thu 11:15:23 PM 40.7469 -103.9072 117° Southeast 353 406 24,300 984 Climbing Denver Center
Thu 11:16:24 PM 40.7097 -103.8064 116° Southeast 374 430 25,300 1,512 Climbing Denver Center
Thu 11:17:26 PM 40.6439 -103.6353 117° Southeast 374 430 27,400 1,805 Climbing Denver Center
Thu 11:18:27 PM 40.5975 -103.5139 117° Southeast 372 428 29,000 1,415 Climbing Denver Center
Thu 11:19:29 PM 40.5503 -103.3933 117° Southeast 370 426 30,300 1,122 Climbing Denver Center
Thu 11:20:30 PM 40.5017 -103.2706 117° Southeast 378 435 31,300 976 Climbing Denver Center
Thu 11:21:32 PM 40.4536 -103.1453 117° Southeast 383 441 32,300 976 Climbing Denver Center
Thu 11:22:33 PM 40.4042 -103.0192 117° Southeast 388 447 33,300 984 Climbing Denver Center
Thu 11:23:34 PM 40.3553 -102.8919 117° Southeast 389 448 34,300 976 Climbing Denver Center
Thu 11:24:36 PM 40.3028 -102.7639 118° Southeast 397 457 35,300 1,073 Climbing Denver Center
Thu 11:25:37 PM 40.2453 -102.6172 117° Southeast 392 451 36,500 976 Climbing Denver Center
Thu 11:26:39 PM 40.1967 -102.4956 118° Southeast 394 453 37,300 780 Climbing Denver Center
Thu 11:27:40 PM 40.1475 -102.3728 118° Southeast 398 458 38,100 836 Climbing Denver Center
Thu 11:28:41 PM 40.0914 -102.2297 117° Southeast 398 458 39,000 829 Climbing Denver Center
Thu 11:29:43 PM 40.0428 -102.1069 117° Southeast 398 458 39,800 829 Climbing Denver Center
Thu 11:30:44 PM 39.9847 -101.9658 118° Southeast 397 457 40,700 585 Climbing Denver Center
Thu 11:31:46 PM 39.9361 -101.8461 118° Southeast 393 452 41,000 146 Climbing Denver Center
Thu 11:32:47 PM 39.8775 -101.7008 118° Southeast 404 465 41,000  Level Denver Center
Thu 11:33:49 PM 39.8250 -101.5739 118° Southeast 415 478 41,000  Level Denver Center
Thu 11:34:50 PM 39.7722 -101.4450 118° Southeast 422 486 41,000  Level Denver Center
Thu 11:35:51 PM 39.7100 -101.2917 118° Southeast 430 495 41,000  Level Denver Center
Thu 11:36:53 PM 39.6547 -101.1631 119° Southeast 428 493 41,000  Level Denver Center
Thu 11:37:54 PM 39.5911 -101.0103 118° Southeast 430 495 41,000  Level Denver Center
Thu 11:38:56 PM 39.5372 -100.8794 118° Southeast 431 496 41,000  Level Denver Center
Thu 11:39:57 PM 39.4831 -100.7494 118° Southeast 430 495 41,000  Level Denver Center
Thu 11:40:58 PM 39.4186 -100.5989 119° Southeast 429 494 41,000  Level Denver Center
Thu 11:42:00 PM 39.3631 -100.4678 119° Southeast 434 499 41,000  Level Denver Center
Thu 11:43:01 PM 39.2994 -100.3142 118° Southeast 435 501 41,000  Level Denver Center
Thu 11:44:02 PM 39.2425 -100.1850 120° Southeast 434 499 41,000  Level Denver Center
Thu 11:45:04 PM 39.1775 -100.0325 119° Southeast 435 501 41,000  Level Denver Center
Thu 11:46:05 PM 39.1183 -99.8958 119° Southeast 433 498 41,000  Level Denver Center
Thu 11:47:06 PM 39.0619 -99.7653 119° Southeast 433 498 41,000  Level Denver Center
Thu 11:48:08 PM 39.0056 -99.6361 119° Southeast 432 497 41,000  Level Denver Center
Thu 11:48:53 PM 38.9650 -99.5447 120° Southeast 431 496 41,000 340 Level Kansas City Center
Thu 11:49:54 PM 38.8956 -99.3836 119° Southeast 429 494 41,600 793 Climbing Kansas City Center
Thu 11:50:54 PM 38.8386 -99.2572 120° Southeast 416 479 42,600 992 Climbing Kansas City Center
Thu 11:51:55 PM 38.7942 -99.1253 113° Southeast 400 460 43,600 738 Climbing Kansas City Center
Thu 11:52:56 PM 38.7478 -98.9972 115° Southeast 396 456 44,100 492 Climbing Kansas City Center
Thu 11:53:57 PM 38.7014 -98.8692 115° Southeast 395 455 44,600 443 Climbing Kansas City Center
Thu 11:54:58 PM 38.6544 -98.7381 115° Southeast 401 461 45,000 197 Climbing Kansas City Center
Thu 11:55:59 PM 38.6061 -98.6058 115° Southeast 407 468 45,000  Level Kansas City Center
Thu 11:57:00 PM 38.5569 -98.4708 115° Southeast 415 478 45,000  Level Kansas City Center
Thu 11:58:01 PM 38.5069 -98.3300 114° Southeast 429 494 45,000  Level Kansas City Center
Thu 11:59:01 PM 38.4553 -98.1886 115° Southeast 436 502 45,000  Level Kansas City Center
Fri 12:00:02 AM 38.4022 -98.0450 115° Southeast 444 511 45,000  Level Kansas City Center
Fri 12:01:03 AM 38.3497 -97.9014 115° Southeast 444 511 45,000  Level Kansas City Center
Fri 12:02:04 AM 38.2975 -97.7600 115° Southeast 441 507 45,000  Level Kansas City Center
Fri 12:03:05 AM 38.2456 -97.6192 115° Southeast 438 504 45,000  Level Kansas City Center
Fri 12:04:06 AM 38.1933 -97.4814 116° Southeast 431 496 45,000  Level Kansas City Center
Fri 12:05:06 AM 38.1422 -97.3461 116° Southeast 424 488 45,000  Level Kansas City Center
Fri 12:06:07 AM 38.0903 -97.2111 116° Southeast 421 484 45,000  Level Kansas City Center
Fri 12:07:08 AM 38.0394 -97.0744 115° Southeast 423 487 45,000  Level Kansas City Center
Fri 12:08:09 AM 37.9869 -96.9397 116° Southeast 424 488 45,000  Level Kansas City Center
Fri 12:09:09 AM 37.9353 -96.8047 116° Southeast 423 487 45,000  Level Kansas City Center
Fri 12:10:10 AM 37.8831 -96.6692 116° Southeast 428 493 45,000  Level Kansas City Center
Fri 12:11:11 AM 37.8306 -96.5339 116° Southeast 427 491 45,000  Level Kansas City Center
Fri 12:12:12 AM 37.7781 -96.3975 116° Southeast 428 493 45,000  Level Kansas City Center
Fri 12:13:12 AM 37.7242 -96.2608 116° Southeast 432 497 45,000  Level Kansas City Center
Fri 12:14:13 AM 37.6639 -96.1036 116° Southeast 432 497 45,000  Level Kansas City Center
Fri 12:15:14 AM 37.6108 -95.9664 116° Southeast 433 498 45,000  Level Kansas City Center
Fri 12:16:15 AM 37.5567 -95.8297 117° Southeast 435 501 45,000  Level Kansas City Center
Fri 12:17:15 AM 37.5011 -95.6992 118° Southeast 425 489 45,000  Level Kansas City Center
Fri 12:18:16 AM 37.4478 -95.5636 116° Southeast 426 490 45,000  Level Kansas City Center
Fri 12:19:17 AM 37.3936 -95.4228 116° Southeast 436 502 45,000  Level Kansas City Center
Fri 12:20:18 AM 37.3381 -95.2889 118° Southeast 436 502 45,000  Level Kansas City Center
Fri 12:21:18 AM 37.2844 -95.1536 116° Southeast 432 497 45,000  Level Kansas City Center
Fri 12:22:19 AM 37.2297 -95.0189 117° Southeast 433 498 45,000  Level Kansas City Center
Fri 12:23:20 AM 37.1744 -94.8842 117° Southeast 431 496 45,000  Level Kansas City Center
Fri 12:24:21 AM 37.1197 -94.7511 117° Southeast 430 495 45,000  Level Kansas City Center
Fri 12:25:21 AM 37.0667 -94.6197 117° Southeast 424 488 45,000  Level Kansas City Center
Fri 12:26:22 AM 37.0119 -94.4853 117° Southeast 427 491 45,000  Level Kansas City Center
Fri 12:27:23 AM 36.9564 -94.3508 117° Southeast 430 495 45,000  Level Kansas City Center
Fri 12:28:24 AM 36.8997 -94.2169 118° Southeast 432 497 45,000  Level Kansas City Center
Fri 12:29:24 AM 36.8425 -94.0825 118° Southeast 434 499 45,000  Level Kansas City Center
Fri 12:30:25 AM 36.7864 -93.9514 118° Southeast 430 495 45,000  Level Kansas City Center
Fri 12:31:26 AM 36.7306 -93.8175 117° Southeast 431 496 45,000  Level Kansas City Center
Fri 12:32:27 AM 36.6719 -93.6792 118° Southeast 430 495 45,000  Level Kansas City Center
Fri 12:33:27 AM 36.6161 -93.5481 118° Southeast 429 494 45,000  Level Kansas City Center
Fri 12:34:28 AM 36.5600 -93.4167 118° Southeast 430 495 45,000  Level Kansas City Center
Fri 12:35:29 AM 36.5033 -93.2833 118° Southeast 434 499 45,000  Level Kansas City Center
Fri 12:36:29 AM 36.4464 -93.1494 118° Southeast 437 503 45,000  Level Kansas City Center
Fri 12:37:30 AM 36.3900 -93.0186 118° Southeast 432 497 45,000  Level Kansas City Center
Fri 12:38:32 AM 36.3311 -92.8817 118° Southeast 433 498 45,000  Level Memphis Center
Fri 12:39:32 AM 36.2775 -92.7461 116° Southeast 433 498 45,000  Level Memphis Center
Fri 12:40:32 AM 36.2217 -92.6106 117° Southeast 440 506 45,000  Level Memphis Center
Fri 12:41:32 AM 36.1656 -92.4781 118° Southeast 440 506 45,000  Level Memphis Center
Fri 12:42:32 AM 36.1117 -92.3456 117° Southeast 440 506 45,000  Level Memphis Center
Fri 12:43:32 AM 36.0572 -92.2133 117° Southeast 440 506 45,000  Level Memphis Center
Fri 12:44:32 AM 36.0031 -92.0786 116° Southeast 440 506 45,000  Level Memphis Center
Fri 12:45:32 AM 35.9339 -91.9389 121° Southeast 435 501 45,000  Level Memphis Center
Fri 12:46:32 AM 35.8917 -91.8150 113° Southeast 435 501 45,000  Level Memphis Center
Fri 12:47:32 AM 35.8347 -91.6833 118° Southeast 435 501 45,000  Level Memphis Center
Fri 12:48:32 AM 35.7817 -91.5519 116° Southeast 430 495 45,000  Level Memphis Center
Fri 12:49:32 AM 35.7225 -91.4208 119° Southeast 430 495 45,000  Level Memphis Center
Fri 12:50:32 AM 35.6631 -91.2819 118° Southeast 435 501 45,000  Level Memphis Center
Fri 12:51:32 AM 35.6097 -91.1486 116° Southeast 430 495 45,000  Level Memphis Center
Fri 12:52:32 AM 35.5522 -91.0153 118° Southeast 430 495 45,000  Level Memphis Center
Fri 12:53:32 AM 35.4964 -90.8850 118° Southeast 430 495 45,000  Level Memphis Center
Fri 12:54:32 AM 35.4386 -90.7547 119° Southeast 430 495 45,000  Level Memphis Center
Fri 12:55:32 AM 35.3889 -90.6372 117° Southeast 430 495 45,000  Level Memphis Center
Fri 12:56:32 AM 35.3306 -90.5047 118° Southeast 439 505 45,000  Level Memphis Center
Fri 12:57:32 AM 35.2744 -90.3722 117° Southeast 439 505 45,000  Level Memphis Center
Fri 12:58:32 AM 35.2181 -90.2428 118° Southeast 439 505 45,000  Level Memphis Center
Fri 12:59:32 AM 35.1594 -90.1133 119° Southeast 439 505 45,000  Level Memphis Center
Fri 01:00:32 AM 35.1028 -89.9814 118° Southeast 439 505 45,000  Level Memphis Center
Fri 01:01:32 AM 35.0439 -89.8397 117° Southeast 439 505 45,000  Level Memphis Center
Fri 01:02:32 AM 34.9847 -89.7031 118° Southeast 439 505 45,000  Level Memphis Center
Fri 01:03:32 AM 34.9214 -89.5644 119° Southeast 455 524 45,000 -200 Level Memphis Center
Fri 01:04:32 AM 34.8578 -89.4358 121° Southeast 450 518 44,600 -850 Descending Memphis Center
Fri 01:05:32 AM 34.8047 -89.3200 119° Southeast 445 512 43,300 -1,400 Descending Memphis Center
Fri 01:06:32 AM 34.7472 -89.1944 119° Southeast 440 506 41,800 -1,550 Descending Memphis Center
Fri 01:07:32 AM 34.6875 -89.0664 120° Southeast 440 506 40,200 -1,550 Descending Memphis Center
Fri 01:08:32 AM 34.6278 -88.9361 119° Southeast 440 506 38,700 -1,350 Descending Memphis Center
Fri 01:09:32 AM 34.5742 -88.8158 118° Southeast 440 506 37,500 -1,400 Descending Memphis Center
Fri 01:10:32 AM 34.5078 -88.6786 120° Southeast 435 501 35,900 -1,900 Descending Memphis Center
Fri 01:11:32 AM 34.4367 -88.5264 119° Southeast 454 522 33,700 -2,100 Descending Memphis Center
Fri 01:12:32 AM 34.3761 -88.3942 119° Southeast 454 522 31,700 -2,000 Descending Memphis Center
Fri 01:13:32 AM 34.3158 -88.2650 119° Southeast 449 517 29,700 -1,950 Descending Memphis Center
Fri 01:14:32 AM 34.2550 -88.1281 118° Southeast 462 532 27,800 -2,000 Descending Memphis Center
Fri 01:15:32 AM 34.1961 -88.0017 119° Southeast 453 521 25,700 -2,350 Descending Memphis Center
Fri 01:16:32 AM 34.1417 -87.8778 118° Southeast 436 502 23,100 -2,368 Descending Memphis Center
Fri 01:18:42 AM 34.0253 -87.6481 121° Southeast 413 475 18,200 -2,463 Descending Atlanta Center
Fri 01:19:42 AM 33.9703 -87.5256 118° Southeast 386 444 15,300 -2,500 Descending Atlanta Center
Fri 01:20:42 AM 33.9211 -87.4233 120° Southeast 367 422 13,200 -2,050 Descending Atlanta Center
Fri 01:21:42 AM 33.8756 -87.3264 119° Southeast 354 407 11,200 -2,000 Descending Atlanta Center
Fri 01:22:42 AM 33.8297 -87.2422 123° Southeast 328 377 9,200 -1,750 Descending Atlanta Center
Fri 01:23:42 AM 33.7772 -87.1728 132° Southeast 297 342 7,700 -1,500 Descending Atlanta Center
Fri 01:24:42 AM 33.7228 -87.1033 133° Southeast 284 327 6,200 -1,500 Descending Atlanta Center
Fri 01:25:42 AM 33.6722 -87.0392 133° Southeast 274 315 4,700 -1,350 Descending Atlanta Center
Fri 01:26:42 AM 33.6194 -86.9750 135° Southeast 274 315 3,500 -1,150 Descending Atlanta Center
Fri 01:27:42 AM 33.5731 -86.9111 131° Southeast 268 308 2,400 -600 Descending Atlanta Center
Fri 01:28:42 AM 33.5428 -86.8553 123° Southeast 233 268 2,300 -486 Descending Atlanta Center
Fri 01:30:10 AM 33.5400 -86.7953 93° East 121 139 1,200 -750 Descending Atlanta Center
Fri 01:32:00 AM 33.5500 -86.7500 140° Southeast  Level FlightAware Approximate

Login

Don't have an account? Register now (free) for customized features, flight alerts, and more!